sensor_id;sensor_type;location;lat;lon;timestamp;P1;durP1;ratioP1;P2;durP2;ratioP2
43523;SDS011;29120;52.006;6.020;2022-07-23T00:01:05;1.50;;;0.40;;
43523;SDS011;29120;52.006;6.020;2022-07-23T00:03:30;1.52;;;0.40;;
43523;SDS011;29120;52.006;6.020;2022-07-23T00:05:56;1.10;;;0.50;;
43523;SDS011;29120;52.006;6.020;2022-07-23T00:08:22;1.67;;;0.50;;
43523;SDS011;29120;52.006;6.020;2022-07-23T00:10:47;1.35;;;0.40;;
43523;SDS011;29120;52.006;6.020;2022-07-23T00:13:13;0.88;;;0.57;;
43523;SDS011;29120;52.006;6.020;2022-07-23T00:15:38;1.70;;;0.60;;
43523;SDS011;29120;52.006;6.020;2022-07-23T00:18:04;1.20;;;0.50;;
43523;SDS011;29120;52.006;6.020;2022-07-23T00:20:30;0.80;;;0.50;;
43523;SDS011;29120;52.006;6.020;2022-07-23T00:22:55;4.78;;;0.90;;
43523;SDS011;29120;52.006;6.020;2022-07-23T00:25:21;2.03;;;0.60;;
43523;SDS011;29120;52.006;6.020;2022-07-23T00:27:48;2.60;;;0.52;;
43523;SDS011;29120;52.006;6.020;2022-07-23T00:30:14;2.97;;;0.60;;
43523;SDS011;29120;52.006;6.020;2022-07-23T00:32:50;0.80;;;0.60;;
43523;SDS011;29120;52.006;6.020;2022-07-23T00:35:24;3.10;;;1.00;;
43523;SDS011;29120;52.006;6.020;2022-07-23T00:37:51;1.42;;;0.75;;
43523;SDS011;29120;52.006;6.020;2022-07-23T00:40:16;2.28;;;0.60;;
43523;SDS011;29120;52.006;6.020;2022-07-23T00:42:43;3.20;;;0.70;;
43523;SDS011;29120;52.006;6.020;2022-07-23T00:45:09;1.30;;;0.60;;
43523;SDS011;29120;52.006;6.020;2022-07-23T00:47:35;1.88;;;0.60;;
43523;SDS011;29120;52.006;6.020;2022-07-23T00:50:01;2.38;;;0.80;;
43523;SDS011;29120;52.006;6.020;2022-07-23T00:52:28;2.60;;;0.70;;
43523;SDS011;29120;52.006;6.020;2022-07-23T00:54:54;3.45;;;0.90;;
43523;SDS011;29120;52.006;6.020;2022-07-23T00:57:20;4.03;;;0.73;;
43523;SDS011;29120;52.006;6.020;2022-07-23T00:59:46;2.30;;;0.77;;
43523;SDS011;29120;52.006;6.020;2022-07-23T01:02:11;2.55;;;0.73;;
43523;SDS011;29120;52.006;6.020;2022-07-23T01:04:37;4.47;;;0.82;;
43523;SDS011;29120;52.006;6.020;2022-07-23T01:07:02;2.15;;;0.80;;
43523;SDS011;29120;52.006;6.020;2022-07-23T01:09:28;1.42;;;0.70;;
43523;SDS011;29120;52.006;6.020;2022-07-23T01:11:55;1.67;;;0.55;;
43523;SDS011;29120;52.006;6.020;2022-07-23T01:14:22;0.73;;;0.60;;
43523;SDS011;29120;52.006;6.020;2022-07-23T01:16:48;1.33;;;0.57;;
43523;SDS011;29120;52.006;6.020;2022-07-23T01:19:14;3.53;;;0.93;;
43523;SDS011;29120;52.006;6.020;2022-07-23T01:21:41;1.23;;;0.57;;
43523;SDS011;29120;52.006;6.020;2022-07-23T01:24:14;1.85;;;0.50;;
43523;SDS011;29120;52.006;6.020;2022-07-23T01:26:42;1.52;;;0.77;;
43523;SDS011;29120;52.006;6.020;2022-07-23T01:29:09;2.70;;;1.02;;
43523;SDS011;29120;52.006;6.020;2022-07-23T01:31:35;1.88;;;0.60;;
43523;SDS011;29120;52.006;6.020;2022-07-23T01:34:01;1.65;;;0.70;;
43523;SDS011;29120;52.006;6.020;2022-07-23T01:36:27;1.20;;;0.60;;
43523;SDS011;29120;52.006;6.020;2022-07-23T01:38:53;3.35;;;1.00;;
43523;SDS011;29120;52.006;6.020;2022-07-23T01:41:19;2.20;;;0.70;;
43523;SDS011;29120;52.006;6.020;2022-07-23T01:43:45;2.90;;;0.75;;
43523;SDS011;29120;52.006;6.020;2022-07-23T01:46:10;2.90;;;0.80;;
43523;SDS011;29120;52.006;6.020;2022-07-23T01:48:36;2.65;;;0.73;;
43523;SDS011;29120;52.006;6.020;2022-07-23T01:51:02;1.98;;;0.60;;
43523;SDS011;29120;52.006;6.020;2022-07-23T01:53:28;1.80;;;0.80;;
43523;SDS011;29120;52.006;6.020;2022-07-23T01:55:56;4.20;;;0.60;;
43523;SDS011;29120;52.006;6.020;2022-07-23T01:58:22;3.05;;;0.68;;
43523;SDS011;29120;52.006;6.020;2022-07-23T02:00:47;1.23;;;0.70;;
43523;SDS011;29120;52.006;6.020;2022-07-23T02:03:13;0.93;;;0.57;;
43523;SDS011;29120;52.006;6.020;2022-07-23T02:05:39;3.45;;;0.75;;
43523;SDS011;29120;52.006;6.020;2022-07-23T02:08:04;1.70;;;0.70;;
43523;SDS011;29120;52.006;6.020;2022-07-23T02:10:30;2.25;;;0.70;;
43523;SDS011;29120;52.006;6.020;2022-07-23T02:12:55;1.60;;;0.85;;
43523;SDS011;29120;52.006;6.020;2022-07-23T02:15:21;1.50;;;0.60;;
43523;SDS011;29120;52.006;6.020;2022-07-23T02:17:47;1.50;;;0.77;;
43523;SDS011;29120;52.006;6.020;2022-07-23T02:20:12;2.67;;;0.70;;
43523;SDS011;29120;52.006;6.020;2022-07-23T02:22:38;1.90;;;0.80;;
43523;SDS011;29120;52.006;6.020;2022-07-23T02:25:04;1.40;;;0.80;;
43523;SDS011;29120;52.006;6.020;2022-07-23T02:27:31;3.45;;;0.95;;
43523;SDS011;29120;52.006;6.020;2022-07-23T02:29:56;2.25;;;0.70;;
43523;SDS011;29120;52.006;6.020;2022-07-23T02:32:22;3.25;;;0.65;;
43523;SDS011;29120;52.006;6.020;2022-07-23T02:34:48;4.03;;;0.75;;
43523;SDS011;29120;52.006;6.020;2022-07-23T02:37:14;1.85;;;0.80;;
43523;SDS011;29120;52.006;6.020;2022-07-23T02:39:39;2.05;;;0.68;;
43523;SDS011;29120;52.006;6.020;2022-07-23T02:42:05;2.83;;;0.80;;
43523;SDS011;29120;52.006;6.020;2022-07-23T02:44:31;1.85;;;0.63;;
43523;SDS011;29120;52.006;6.020;2022-07-23T02:46:56;5.35;;;0.70;;
43523;SDS011;29120;52.006;6.020;2022-07-23T02:49:22;2.10;;;0.75;;
43523;SDS011;29120;52.006;6.020;2022-07-23T02:51:48;3.40;;;0.80;;
43523;SDS011;29120;52.006;6.020;2022-07-23T02:54:13;3.78;;;0.88;;
43523;SDS011;29120;52.006;6.020;2022-07-23T02:56:39;1.10;;;0.70;;
43523;SDS011;29120;52.006;6.020;2022-07-23T02:59:04;1.40;;;0.60;;
43523;SDS011;29120;52.006;6.020;2022-07-23T03:01:30;2.65;;;0.63;;
43523;SDS011;29120;52.006;6.020;2022-07-23T03:03:55;1.40;;;0.77;;
43523;SDS011;29120;52.006;6.020;2022-07-23T03:06:21;3.47;;;0.98;;
43523;SDS011;29120;52.006;6.020;2022-07-23T03:08:47;1.40;;;0.85;;
43523;SDS011;29120;52.006;6.020;2022-07-23T03:11:12;2.53;;;0.82;;
43523;SDS011;29120;52.006;6.020;2022-07-23T03:13:38;4.03;;;0.70;;
43523;SDS011;29120;52.006;6.020;2022-07-23T03:16:04;2.03;;;0.70;;
43523;SDS011;29120;52.006;6.020;2022-07-23T03:18:30;1.02;;;0.70;;
43523;SDS011;29120;52.006;6.020;2022-07-23T03:20:56;1.35;;;0.65;;
43523;SDS011;29120;52.006;6.020;2022-07-23T03:23:21;3.85;;;0.70;;
43523;SDS011;29120;52.006;6.020;2022-07-23T03:25:47;1.80;;;0.60;;
43523;SDS011;29120;52.006;6.020;2022-07-23T03:28:13;1.05;;;0.77;;
43523;SDS011;29120;52.006;6.020;2022-07-23T03:30:40;2.03;;;0.60;;
43523;SDS011;29120;52.006;6.020;2022-07-23T03:33:11;2.45;;;0.60;;
43523;SDS011;29120;52.006;6.020;2022-07-23T03:35:37;2.47;;;0.70;;
43523;SDS011;29120;52.006;6.020;2022-07-23T03:38:03;2.22;;;0.65;;
43523;SDS011;29120;52.006;6.020;2022-07-23T03:40:28;3.33;;;0.85;;
43523;SDS011;29120;52.006;6.020;2022-07-23T03:42:54;1.35;;;0.60;;
43523;SDS011;29120;52.006;6.020;2022-07-23T03:45:19;4.35;;;0.70;;
43523;SDS011;29120;52.006;6.020;2022-07-23T03:47:45;0.82;;;0.40;;
43523;SDS011;29120;52.006;6.020;2022-07-23T03:50:11;2.53;;;0.50;;
43523;SDS011;29120;52.006;6.020;2022-07-23T03:52:36;0.98;;;0.45;;
43523;SDS011;29120;52.006;6.020;2022-07-23T03:55:02;1.65;;;0.50;;
43523;SDS011;29120;52.006;6.020;2022-07-23T03:57:29;2.20;;;0.50;;
43523;SDS011;29120;52.006;6.020;2022-07-23T03:59:54;1.58;;;0.60;;
43523;SDS011;29120;52.006;6.020;2022-07-23T04:02:20;1.98;;;0.50;;
43523;SDS011;29120;52.006;6.020;2022-07-23T04:04:45;0.85;;;0.50;;
43523;SDS011;29120;52.006;6.020;2022-07-23T04:07:11;1.42;;;0.60;;
43523;SDS011;29120;52.006;6.020;2022-07-23T04:09:37;3.08;;;0.55;;
43523;SDS011;29120;52.006;6.020;2022-07-23T04:12:05;1.95;;;0.60;;
43523;SDS011;29120;52.006;6.020;2022-07-23T04:14:31;1.02;;;0.50;;
43523;SDS011;29120;52.006;6.020;2022-07-23T04:16:57;1.58;;;0.63;;
43523;SDS011;29120;52.006;6.020;2022-07-23T04:19:22;1.30;;;0.50;;
43523;SDS011;29120;52.006;6.020;2022-07-23T04:21:48;3.15;;;0.50;;
43523;SDS011;29120;52.006;6.020;2022-07-23T04:24:13;0.73;;;0.47;;
43523;SDS011;29120;52.006;6.020;2022-07-23T04:26:39;1.60;;;0.60;;
43523;SDS011;29120;52.006;6.020;2022-07-23T04:29:04;1.20;;;0.50;;
43523;SDS011;29120;52.006;6.020;2022-07-23T04:31:30;4.72;;;0.50;;
43523;SDS011;29120;52.006;6.020;2022-07-23T04:33:56;0.80;;;0.40;;
43523;SDS011;29120;52.006;6.020;2022-07-23T04:36:21;1.40;;;0.50;;
43523;SDS011;29120;52.006;6.020;2022-07-23T04:38:47;1.17;;;0.55;;
43523;SDS011;29120;52.006;6.020;2022-07-23T04:41:12;1.73;;;0.60;;
43523;SDS011;29120;52.006;6.020;2022-07-23T04:43:38;2.42;;;0.65;;
43523;SDS011;29120;52.006;6.020;2022-07-23T04:46:03;2.30;;;0.60;;
43523;SDS011;29120;52.006;6.020;2022-07-23T04:48:29;1.33;;;0.50;;
43523;SDS011;29120;52.006;6.020;2022-07-23T04:50:54;1.00;;;0.50;;
43523;SDS011;29120;52.006;6.020;2022-07-23T04:53:20;1.70;;;0.50;;
43523;SDS011;29120;52.006;6.020;2022-07-23T04:55:45;1.30;;;0.52;;
43523;SDS011;29120;52.006;6.020;2022-07-23T04:58:11;3.92;;;0.50;;
43523;SDS011;29120;52.006;6.020;2022-07-23T05:00:36;2.03;;;0.40;;
43523;SDS011;29120;52.006;6.020;2022-07-23T05:03:02;2.50;;;0.70;;
43523;SDS011;29120;52.006;6.020;2022-07-23T05:05:28;2.55;;;0.55;;
43523;SDS011;29120;52.006;6.020;2022-07-23T05:07:53;1.45;;;0.50;;
43523;SDS011;29120;52.006;6.020;2022-07-23T05:10:19;1.60;;;0.50;;
43523;SDS011;29120;52.006;6.020;2022-07-23T05:12:45;1.55;;;0.60;;
43523;SDS011;29120;52.006;6.020;2022-07-23T05:15:11;3.45;;;0.50;;
43523;SDS011;29120;52.006;6.020;2022-07-23T05:17:36;1.20;;;0.47;;
43523;SDS011;29120;52.006;6.020;2022-07-23T05:20:02;1.75;;;0.40;;
43523;SDS011;29120;52.006;6.020;2022-07-23T05:22:28;0.77;;;0.40;;
43523;SDS011;29120;52.006;6.020;2022-07-23T05:24:53;2.00;;;0.50;;
43523;SDS011;29120;52.006;6.020;2022-07-23T05:27:19;2.22;;;0.40;;
43523;SDS011;29120;52.006;6.020;2022-07-23T05:29:44;1.63;;;0.30;;
43523;SDS011;29120;52.006;6.020;2022-07-23T05:32:10;3.75;;;0.50;;
43523;SDS011;29120;52.006;6.020;2022-07-23T05:34:36;1.45;;;0.30;;
43523;SDS011;29120;52.006;6.020;2022-07-23T05:37:01;2.85;;;0.30;;
43523;SDS011;29120;52.006;6.020;2022-07-23T05:39:27;1.85;;;0.30;;
43523;SDS011;29120;52.006;6.020;2022-07-23T05:41:52;1.08;;;0.50;;
43523;SDS011;29120;52.006;6.020;2022-07-23T05:44:18;0.73;;;0.30;;
43523;SDS011;29120;52.006;6.020;2022-07-23T05:46:43;0.90;;;0.30;;
43523;SDS011;29120;52.006;6.020;2022-07-23T05:49:09;0.90;;;0.40;;
43523;SDS011;29120;52.006;6.020;2022-07-23T05:51:34;0.82;;;0.20;;
43523;SDS011;29120;52.006;6.020;2022-07-23T05:54:00;1.90;;;0.20;;
43523;SDS011;29120;52.006;6.020;2022-07-23T05:56:25;0.73;;;0.40;;
43523;SDS011;29120;52.006;6.020;2022-07-23T05:58:51;1.05;;;0.20;;
43523;SDS011;29120;52.006;6.020;2022-07-23T06:01:16;2.17;;;0.20;;
43523;SDS011;29120;52.006;6.020;2022-07-23T06:03:42;1.10;;;0.30;;
43523;SDS011;29120;52.006;6.020;2022-07-23T06:06:07;1.10;;;0.20;;
43523;SDS011;29120;52.006;6.020;2022-07-23T06:08:33;0.60;;;0.20;;
43523;SDS011;29120;52.006;6.020;2022-07-23T06:10:58;0.35;;;0.20;;
43523;SDS011;29120;52.006;6.020;2022-07-23T06:13:24;1.00;;;0.20;;
43523;SDS011;29120;52.006;6.020;2022-07-23T06:15:50;1.15;;;0.20;;
43523;SDS011;29120;52.006;6.020;2022-07-23T06:18:15;0.88;;;0.20;;
43523;SDS011;29120;52.006;6.020;2022-07-23T06:20:41;1.17;;;0.20;;
43523;SDS011;29120;52.006;6.020;2022-07-23T06:23:06;2.50;;;0.30;;
43523;SDS011;29120;52.006;6.020;2022-07-23T06:25:32;1.33;;;0.20;;
43523;SDS011;29120;52.006;6.020;2022-07-23T06:27:57;0.95;;;0.20;;
43523;SDS011;29120;52.006;6.020;2022-07-23T06:30:23;1.25;;;0.20;;
43523;SDS011;29120;52.006;6.020;2022-07-23T06:32:49;0.50;;;0.20;;
43523;SDS011;29120;52.006;6.020;2022-07-23T06:35:15;0.45;;;0.10;;
43523;SDS011;29120;52.006;6.020;2022-07-23T06:37:41;0.98;;;0.20;;
43523;SDS011;29120;52.006;6.020;2022-07-23T06:40:07;0.82;;;0.20;;
43523;SDS011;29120;52.006;6.020;2022-07-23T06:42:33;1.38;;;0.20;;
43523;SDS011;29120;52.006;6.020;2022-07-23T06:45:02;1.38;;;0.20;;
43523;SDS011;29120;52.006;6.020;2022-07-23T06:47:31;1.70;;;0.20;;
43523;SDS011;29120;52.006;6.020;2022-07-23T06:49:57;0.60;;;0.20;;
43523;SDS011;29120;52.006;6.020;2022-07-23T06:52:23;1.38;;;0.20;;
43523;SDS011;29120;52.006;6.020;2022-07-23T06:54:48;1.35;;;0.20;;
43523;SDS011;29120;52.006;6.020;2022-07-23T06:57:14;0.20;;;0.20;;
43523;SDS011;29120;52.006;6.020;2022-07-23T06:59:39;0.70;;;0.20;;
43523;SDS011;29120;52.006;6.020;2022-07-23T07:02:05;0.75;;;0.17;;
43523;SDS011;29120;52.006;6.020;2022-07-23T07:04:32;2.40;;;0.30;;
43523;SDS011;29120;52.006;6.020;2022-07-23T07:06:57;0.93;;;0.20;;
43523;SDS011;29120;52.006;6.020;2022-07-23T07:09:23;1.08;;;0.25;;
43523;SDS011;29120;52.006;6.020;2022-07-23T07:11:49;1.80;;;0.20;;
43523;SDS011;29120;52.006;6.020;2022-07-23T07:14:14;1.13;;;0.20;;
43523;SDS011;29120;52.006;6.020;2022-07-23T07:16:40;1.02;;;0.20;;
43523;SDS011;29120;52.006;6.020;2022-07-23T07:19:05;0.40;;;0.15;;
43523;SDS011;29120;52.006;6.020;2022-07-23T07:21:31;0.90;;;0.20;;
43523;SDS011;29120;52.006;6.020;2022-07-23T07:23:56;1.20;;;0.20;;
43523;SDS011;29120;52.006;6.020;2022-07-23T07:26:22;0.47;;;0.20;;
43523;SDS011;29120;52.006;6.020;2022-07-23T07:28:48;1.58;;;0.30;;
43523;SDS011;29120;52.006;6.020;2022-07-23T07:31:14;0.68;;;0.20;;
43523;SDS011;29120;52.006;6.020;2022-07-23T07:33:39;0.32;;;0.10;;
43523;SDS011;29120;52.006;6.020;2022-07-23T07:36:05;1.23;;;0.20;;
43523;SDS011;29120;52.006;6.020;2022-07-23T07:38:31;1.20;;;0.20;;
43523;SDS011;29120;52.006;6.020;2022-07-23T07:40:56;2.15;;;0.20;;
43523;SDS011;29120;52.006;6.020;2022-07-23T07:43:22;0.93;;;0.20;;
43523;SDS011;29120;52.006;6.020;2022-07-23T07:45:47;0.55;;;0.20;;
43523;SDS011;29120;52.006;6.020;2022-07-23T07:48:13;1.25;;;0.20;;
43523;SDS011;29120;52.006;6.020;2022-07-23T07:50:38;1.05;;;0.17;;
43523;SDS011;29120;52.006;6.020;2022-07-23T07:53:04;0.75;;;0.10;;
43523;SDS011;29120;52.006;6.020;2022-07-23T07:55:30;0.65;;;0.20;;
43523;SDS011;29120;52.006;6.020;2022-07-23T07:57:55;0.73;;;0.10;;
43523;SDS011;29120;52.006;6.020;2022-07-23T08:00:22;1.58;;;0.20;;
43523;SDS011;29120;52.006;6.020;2022-07-23T08:02:49;0.93;;;0.30;;
43523;SDS011;29120;52.006;6.020;2022-07-23T08:05:23;0.57;;;0.13;;
43523;SDS011;29120;52.006;6.020;2022-07-23T08:07:54;0.57;;;0.10;;
43523;SDS011;29120;52.006;6.020;2022-07-23T08:10:21;2.28;;;0.20;;
43523;SDS011;29120;52.006;6.020;2022-07-23T08:12:47;0.25;;;0.10;;
43523;SDS011;29120;52.006;6.020;2022-07-23T08:15:15;0.60;;;0.13;;
43523;SDS011;29120;52.006;6.020;2022-07-23T08:17:43;0.63;;;0.13;;
43523;SDS011;29120;52.006;6.020;2022-07-23T08:20:09;1.67;;;0.20;;
43523;SDS011;29120;52.006;6.020;2022-07-23T08:25:21;0.98;;;0.10;;
43523;SDS011;29120;52.006;6.020;2022-07-23T08:27:48;1.20;;;0.10;;
43523;SDS011;29120;52.006;6.020;2022-07-23T08:30:14;1.70;;;0.22;;
43523;SDS011;29120;52.006;6.020;2022-07-23T08:32:47;1.10;;;0.20;;
43523;SDS011;29120;52.006;6.020;2022-07-23T08:35:17;0.73;;;0.10;;
43523;SDS011;29120;52.006;6.020;2022-07-23T08:38:03;0.20;;;0.10;;
43523;SDS011;29120;52.006;6.020;2022-07-23T08:40:32;0.38;;;0.20;;
43523;SDS011;29120;52.006;6.020;2022-07-23T08:42:59;1.58;;;0.10;;
43523;SDS011;29120;52.006;6.020;2022-07-23T08:45:28;0.20;;;0.00;;
43523;SDS011;29120;52.006;6.020;2022-07-23T08:47:54;2.00;;;0.10;;
43523;SDS011;29120;52.006;6.020;2022-07-23T08:50:22;0.38;;;0.10;;
43523;SDS011;29120;52.006;6.020;2022-07-23T08:52:49;0.60;;;0.20;;
43523;SDS011;29120;52.006;6.020;2022-07-23T08:55:19;1.38;;;0.10;;
43523;SDS011;29120;52.006;6.020;2022-07-23T08:57:47;2.05;;;0.10;;
43523;SDS011;29120;52.006;6.020;2022-07-23T09:00:14;0.68;;;0.32;;
43523;SDS011;29120;52.006;6.020;2022-07-23T09:02:41;0.75;;;0.10;;
43523;SDS011;29120;52.006;6.020;2022-07-23T09:05:09;1.63;;;0.10;;
43523;SDS011;29120;52.006;6.020;2022-07-23T09:10:09;0.20;;;0.10;;
43523;SDS011;29120;52.006;6.020;2022-07-23T09:12:36;0.68;;;0.10;;
43523;SDS011;29120;52.006;6.020;2022-07-23T09:15:03;0.73;;;0.10;;
43523;SDS011;29120;52.006;6.020;2022-07-23T09:17:36;1.77;;;0.30;;
43523;SDS011;29120;52.006;6.020;2022-07-23T09:20:22;1.02;;;0.25;;
43523;SDS011;29120;52.006;6.020;2022-07-23T09:22:47;1.38;;;0.30;;
43523;SDS011;29120;52.006;6.020;2022-07-23T09:25:15;0.47;;;0.10;;
43523;SDS011;29120;52.006;6.020;2022-07-23T09:30:17;1.48;;;0.20;;
43523;SDS011;29120;52.006;6.020;2022-07-23T09:32:44;0.60;;;0.20;;
43523;SDS011;29120;52.006;6.020;2022-07-23T09:35:09;1.33;;;0.10;;
43523;SDS011;29120;52.006;6.020;2022-07-23T09:37:35;0.30;;;0.10;;
43523;SDS011;29120;52.006;6.020;2022-07-23T09:40:08;1.05;;;0.13;;
43523;SDS011;29120;52.006;6.020;2022-07-23T09:42:36;1.25;;;0.20;;
43523;SDS011;29120;52.006;6.020;2022-07-23T09:45:02;0.50;;;0.10;;
43523;SDS011;29120;52.006;6.020;2022-07-23T09:47:29;0.50;;;0.13;;
43523;SDS011;29120;52.006;6.020;2022-07-23T09:50:06;0.20;;;0.10;;
43523;SDS011;29120;52.006;6.020;2022-07-23T09:52:34;0.30;;;0.10;;
43523;SDS011;29120;52.006;6.020;2022-07-23T09:55:05;0.30;;;0.10;;
43523;SDS011;29120;52.006;6.020;2022-07-23T09:57:31;0.70;;;0.10;;
43523;SDS011;29120;52.006;6.020;2022-07-23T09:59:58;0.88;;;0.10;;
43523;SDS011;29120;52.006;6.020;2022-07-23T10:02:28;0.93;;;0.10;;
43523;SDS011;29120;52.006;6.020;2022-07-23T10:04:57;0.50;;;0.10;;
43523;SDS011;29120;52.006;6.020;2022-07-23T10:07:25;1.15;;;0.10;;
43523;SDS011;29120;52.006;6.020;2022-07-23T10:09:52;0.10;;;0.10;;
43523;SDS011;29120;52.006;6.020;2022-07-23T10:12:18;0.20;;;0.10;;
43523;SDS011;29120;52.006;6.020;2022-07-23T10:15:03;1.23;;;0.20;;
43523;SDS011;29120;52.006;6.020;2022-07-23T10:17:31;0.40;;;0.10;;
43523;SDS011;29120;52.006;6.020;2022-07-23T10:19:57;2.17;;;0.10;;
43523;SDS011;29120;52.006;6.020;2022-07-23T10:22:27;0.30;;;0.10;;
43523;SDS011;29120;52.006;6.020;2022-07-23T10:28:08;0.30;;;0.10;;
43523;SDS011;29120;52.006;6.020;2022-07-23T10:31:02;1.88;;;0.20;;
43523;SDS011;29120;52.006;6.020;2022-07-23T10:34:02;0.43;;;0.10;;
43523;SDS011;29120;52.006;6.020;2022-07-23T10:36:51;0.73;;;0.20;;
43523;SDS011;29120;52.006;6.020;2022-07-23T10:39:24;1.02;;;0.20;;
43523;SDS011;29120;52.006;6.020;2022-07-23T10:41:59;0.60;;;0.13;;
43523;SDS011;29120;52.006;6.020;2022-07-23T10:44:47;3.33;;;0.20;;
43523;SDS011;29120;52.006;6.020;2022-07-23T10:47:27;0.60;;;0.10;;
43523;SDS011;29120;52.006;6.020;2022-07-23T10:55:39;0.50;;;0.20;;
43523;SDS011;29120;52.006;6.020;2022-07-23T10:58:06;0.52;;;0.10;;
43523;SDS011;29120;52.006;6.020;2022-07-23T11:00:32;0.68;;;0.20;;
43523;SDS011;29120;52.006;6.020;2022-07-23T11:03:00;0.47;;;0.20;;
43523;SDS011;29120;52.006;6.020;2022-07-23T11:06:01;1.30;;;0.30;;
43523;SDS011;29120;52.006;6.020;2022-07-23T11:08:19;0.47;;;0.15;;
43523;SDS011;29120;52.006;6.020;2022-07-23T11:31:53;1.52;;;0.20;;
43523;SDS011;29120;52.006;6.020;2022-07-23T11:34:33;1.33;;;0.20;;
43523;SDS011;29120;52.006;6.020;2022-07-23T11:37:07;1.38;;;0.20;;
43523;SDS011;29120;52.006;6.020;2022-07-23T11:39:35;0.50;;;0.20;;
43523;SDS011;29120;52.006;6.020;2022-07-23T11:42:01;0.90;;;0.20;;
43523;SDS011;29120;52.006;6.020;2022-07-23T11:44:34;1.20;;;0.30;;
43523;SDS011;29120;52.006;6.020;2022-07-23T11:47:05;1.92;;;0.20;;
43523;SDS011;29120;52.006;6.020;2022-07-23T11:49:36;2.92;;;0.52;;
43523;SDS011;29120;52.006;6.020;2022-07-23T11:52:06;0.57;;;0.20;;
43523;SDS011;29120;52.006;6.020;2022-07-23T11:54:37;0.47;;;0.20;;
43523;SDS011;29120;52.006;6.020;2022-07-23T11:57:14;0.47;;;0.20;;
43523;SDS011;29120;52.006;6.020;2022-07-23T11:59:41;0.50;;;0.20;;
43523;SDS011;29120;52.006;6.020;2022-07-23T12:02:08;1.40;;;0.20;;
43523;SDS011;29120;52.006;6.020;2022-07-23T12:07:25;0.95;;;0.20;;
43523;SDS011;29120;52.006;6.020;2022-07-23T12:09:57;0.55;;;0.20;;
43523;SDS011;29120;52.006;6.020;2022-07-23T12:12:25;1.38;;;0.20;;
43523;SDS011;29120;52.006;6.020;2022-07-23T12:14:55;0.68;;;0.20;;
43523;SDS011;29120;52.006;6.020;2022-07-23T12:17:30;1.17;;;0.30;;
43523;SDS011;29120;52.006;6.020;2022-07-23T12:19:58;1.00;;;0.30;;
43523;SDS011;29120;52.006;6.020;2022-07-23T12:22:25;0.38;;;0.20;;
43523;SDS011;29120;52.006;6.020;2022-07-23T12:24:58;1.42;;;0.30;;
43523;SDS011;29120;52.006;6.020;2022-07-23T12:27:26;2.25;;;0.22;;
43523;SDS011;29120;52.006;6.020;2022-07-23T12:29:52;1.05;;;0.20;;
43523;SDS011;29120;52.006;6.020;2022-07-23T12:32:22;0.80;;;0.20;;
43523;SDS011;29120;52.006;6.020;2022-07-23T12:35:03;0.88;;;0.30;;
43523;SDS011;29120;52.006;6.020;2022-07-23T12:37:32;0.75;;;0.20;;
43523;SDS011;29120;52.006;6.020;2022-07-23T12:40:22;1.20;;;0.30;;
43523;SDS011;29120;52.006;6.020;2022-07-23T12:42:54;3.08;;;0.30;;
43523;SDS011;29120;52.006;6.020;2022-07-23T12:45:24;1.50;;;0.30;;
43523;SDS011;29120;52.006;6.020;2022-07-23T12:48:01;1.42;;;0.30;;
43523;SDS011;29120;52.006;6.020;2022-07-23T12:53:10;0.80;;;0.20;;
43523;SDS011;29120;52.006;6.020;2022-07-23T12:55:45;1.00;;;0.30;;
43523;SDS011;29120;52.006;6.020;2022-07-23T12:58:13;0.80;;;0.20;;
43523;SDS011;29120;52.006;6.020;2022-07-23T13:00:54;2.03;;;0.20;;
43523;SDS011;29120;52.006;6.020;2022-07-23T13:03:29;0.50;;;0.20;;
43523;SDS011;29120;52.006;6.020;2022-07-23T13:05:57;0.65;;;0.25;;
43523;SDS011;29120;52.006;6.020;2022-07-23T13:08:24;0.65;;;0.30;;
43523;SDS011;29120;52.006;6.020;2022-07-23T13:10:51;0.70;;;0.25;;
43523;SDS011;29120;52.006;6.020;2022-07-23T13:13:20;1.80;;;0.30;;
43523;SDS011;29120;52.006;6.020;2022-07-23T13:15:47;0.40;;;0.20;;
43523;SDS011;29120;52.006;6.020;2022-07-23T13:18:13;0.70;;;0.30;;
43523;SDS011;29120;52.006;6.020;2022-07-23T13:20:38;1.58;;;0.30;;
43523;SDS011;29120;52.006;6.020;2022-07-23T13:23:07;1.10;;;0.22;;
43523;SDS011;29120;52.006;6.020;2022-07-23T13:25:33;0.40;;;0.30;;
43523;SDS011;29120;52.006;6.020;2022-07-23T13:27:59;0.65;;;0.30;;
43523;SDS011;29120;52.006;6.020;2022-07-23T13:30:24;0.80;;;0.30;;
43523;SDS011;29120;52.006;6.020;2022-07-23T13:32:50;1.10;;;0.20;;
43523;SDS011;29120;52.006;6.020;2022-07-23T13:35:16;0.73;;;0.30;;
43523;SDS011;29120;52.006;6.020;2022-07-23T13:37:41;0.60;;;0.30;;
43523;SDS011;29120;52.006;6.020;2022-07-23T13:40:07;0.90;;;0.30;;
43523;SDS011;29120;52.006;6.020;2022-07-23T13:42:33;0.75;;;0.30;;
43523;SDS011;29120;52.006;6.020;2022-07-23T13:44:58;0.77;;;0.30;;
43523;SDS011;29120;52.006;6.020;2022-07-23T13:47:24;0.90;;;0.32;;
43523;SDS011;29120;52.006;6.020;2022-07-23T13:49:50;0.40;;;0.20;;
43523;SDS011;29120;52.006;6.020;2022-07-23T13:52:16;1.40;;;0.30;;
43523;SDS011;29120;52.006;6.020;2022-07-23T13:54:41;2.08;;;0.20;;
43523;SDS011;29120;52.006;6.020;2022-07-23T13:57:07;0.77;;;0.30;;
43523;SDS011;29120;52.006;6.020;2022-07-23T13:59:34;3.05;;;0.30;;
43523;SDS011;29120;52.006;6.020;2022-07-23T14:02:00;0.63;;;0.30;;
43523;SDS011;29120;52.006;6.020;2022-07-23T14:04:29;2.58;;;0.30;;
43523;SDS011;29120;52.006;6.020;2022-07-23T14:06:55;4.53;;;0.45;;
43523;SDS011;29120;52.006;6.020;2022-07-23T14:09:21;0.70;;;0.30;;
43523;SDS011;29120;52.006;6.020;2022-07-23T14:11:48;0.80;;;0.30;;
43523;SDS011;29120;52.006;6.020;2022-07-23T14:14:14;1.00;;;0.40;;
43523;SDS011;29120;52.006;6.020;2022-07-23T14:16:40;1.23;;;0.30;;
43523;SDS011;29120;52.006;6.020;2022-07-23T14:19:06;3.17;;;0.22;;
43523;SDS011;29120;52.006;6.020;2022-07-23T14:21:31;1.65;;;0.30;;
43523;SDS011;29120;52.006;6.020;2022-07-23T14:23:57;0.77;;;0.30;;
43523;SDS011;29120;52.006;6.020;2022-07-23T14:26:22;2.42;;;0.30;;
43523;SDS011;29120;52.006;6.020;2022-07-23T14:28:48;2.63;;;0.30;;
43523;SDS011;29120;52.006;6.020;2022-07-23T14:31:13;2.70;;;0.40;;
43523;SDS011;29120;52.006;6.020;2022-07-23T14:33:39;1.25;;;0.50;;
43523;SDS011;29120;52.006;6.020;2022-07-23T14:36:04;0.65;;;0.20;;
43523;SDS011;29120;52.006;6.020;2022-07-23T14:38:30;1.05;;;0.40;;
43523;SDS011;29120;52.006;6.020;2022-07-23T14:40:56;1.08;;;0.30;;
43523;SDS011;29120;52.006;6.020;2022-07-23T14:43:22;1.38;;;0.30;;
43523;SDS011;29120;52.006;6.020;2022-07-23T14:45:48;1.10;;;0.30;;
43523;SDS011;29120;52.006;6.020;2022-07-23T14:48:13;0.60;;;0.30;;
43523;SDS011;29120;52.006;6.020;2022-07-23T14:50:39;1.63;;;0.40;;
43523;SDS011;29120;52.006;6.020;2022-07-23T14:53:05;1.30;;;0.40;;
43523;SDS011;29120;52.006;6.020;2022-07-23T14:55:31;1.30;;;0.30;;
43523;SDS011;29120;52.006;6.020;2022-07-23T14:57:57;1.42;;;0.30;;
43523;SDS011;29120;52.006;6.020;2022-07-23T15:00:23;1.30;;;0.40;;
43523;SDS011;29120;52.006;6.020;2022-07-23T15:02:48;0.88;;;0.30;;
43523;SDS011;29120;52.006;6.020;2022-07-23T15:05:14;0.40;;;0.30;;
43523;SDS011;29120;52.006;6.020;2022-07-23T15:07:39;1.40;;;0.28;;
43523;SDS011;29120;52.006;6.020;2022-07-23T15:12:34;1.48;;;0.30;;
43523;SDS011;29120;52.006;6.020;2022-07-23T15:15:00;1.92;;;0.50;;
43523;SDS011;29120;52.006;6.020;2022-07-23T15:17:26;0.93;;;0.30;;
43523;SDS011;29120;52.006;6.020;2022-07-23T15:19:51;0.90;;;0.30;;
43523;SDS011;29120;52.006;6.020;2022-07-23T15:22:17;0.82;;;0.40;;
43523;SDS011;29120;52.006;6.020;2022-07-23T15:24:42;1.20;;;0.30;;
43523;SDS011;29120;52.006;6.020;2022-07-23T15:27:09;0.68;;;0.30;;
43523;SDS011;29120;52.006;6.020;2022-07-23T15:29:34;0.80;;;0.40;;
43523;SDS011;29120;52.006;6.020;2022-07-23T15:32:01;0.73;;;0.30;;
43523;SDS011;29120;52.006;6.020;2022-07-23T15:34:27;1.10;;;0.30;;